sensor_id;sensor_type;location;lat;lon;timestamp;pressure;altitude;pressure_sealevel;temperature;humidity
6835;BME280;3455;42.150;24.734;2022-12-08T00:00:46;66423.00;;;8.75;82.54
6835;BME280;3455;42.150;24.734;2022-12-08T00:03:13;66462.94;;;8.86;82.12
6835;BME280;3455;42.150;24.734;2022-12-08T00:05:44;66458.47;;;8.86;82.60
6835;BME280;3455;42.150;24.734;2022-12-08T00:08:29;66396.38;;;8.76;82.70
6835;BME280;3455;42.150;24.734;2022-12-08T00:11:14;66496.16;;;8.88;81.83
6835;BME280;3455;42.150;24.734;2022-12-08T00:13:41;66443.16;;;8.82;82.19
6835;BME280;3455;42.150;24.734;2022-12-08T00:16:08;66425.09;;;8.61;83.88
6835;BME280;3455;42.150;24.734;2022-12-08T00:18:35;66418.44;;;8.64;84.10
6835;BME280;3455;42.150;24.734;2022-12-08T00:21:03;66429.56;;;8.96;83.13
6835;BME280;3455;42.150;24.734;2022-12-08T00:23:30;66448.34;;;8.86;83.22
6835;BME280;3455;42.150;24.734;2022-12-08T00:26:01;66423.09;;;8.86;83.14
6835;BME280;3455;42.150;24.734;2022-12-08T00:28:27;66427.72;;;8.90;82.99
6835;BME280;3455;42.150;24.734;2022-12-08T00:30:54;66451.97;;;8.94;82.50
6835;BME280;3455;42.150;24.734;2022-12-08T00:33:21;66457.44;;;9.08;82.23
6835;BME280;3455;42.150;24.734;2022-12-08T00:35:47;66419.34;;;9.10;81.94
6835;BME280;3455;42.150;24.734;2022-12-08T00:38:15;66475.09;;;9.14;82.86
6835;BME280;3455;42.150;24.734;2022-12-08T00:40:43;66548.34;;;9.21;82.02
6835;BME280;3455;42.150;24.734;2022-12-08T00:43:10;66471.19;;;9.15;81.94
6835;BME280;3455;42.150;24.734;2022-12-08T00:45:36;66477.97;;;8.99;82.46
6835;BME280;3455;42.150;24.734;2022-12-08T00:48:04;66464.41;;;9.14;82.12
6835;BME280;3455;42.150;24.734;2022-12-08T00:50:30;66467.72;;;9.12;81.93
6835;BME280;3455;42.150;24.734;2022-12-08T00:52:57;66494.44;;;9.05;82.47
6835;BME280;3455;42.150;24.734;2022-12-08T00:55:25;66564.34;;;9.13;82.26
6835;BME280;3455;42.150;24.734;2022-12-08T00:57:52;66467.28;;;9.34;81.31
6835;BME280;3455;42.150;24.734;2022-12-08T01:00:19;66456.16;;;9.20;81.26
6835;BME280;3455;42.150;24.734;2022-12-08T01:02:46;66458.84;;;9.07;82.14
6835;BME280;3455;42.150;24.734;2022-12-08T01:05:13;66487.22;;;9.25;81.86
6835;BME280;3455;42.150;24.734;2022-12-08T01:07:39;66436.38;;;9.16;82.35
6835;BME280;3455;42.150;24.734;2022-12-08T01:10:07;66476.38;;;9.20;82.46
6835;BME280;3455;42.150;24.734;2022-12-08T01:12:36;66443.16;;;9.00;82.75
6835;BME280;3455;42.150;24.734;2022-12-08T01:15:03;66408.22;;;8.95;83.45
6835;BME280;3455;42.150;24.734;2022-12-08T01:17:30;66439.03;;;8.85;82.38
6835;BME280;3455;42.150;24.734;2022-12-08T01:19:57;66417.03;;;8.90;82.86
6835;BME280;3455;42.150;24.734;2022-12-08T01:22:24;66403.53;;;8.80;83.16
6835;BME280;3455;42.150;24.734;2022-12-08T01:24:51;66463.66;;;8.91;82.95
6835;BME280;3455;42.150;24.734;2022-12-08T01:27:18;66465.25;;;9.06;82.10
6835;BME280;3455;42.150;24.734;2022-12-08T01:29:46;66428.13;;;8.86;83.12
6835;BME280;3455;42.150;24.734;2022-12-08T01:32:12;66463.72;;;9.02;82.77
6835;BME280;3455;42.150;24.734;2022-12-08T01:34:39;66452.13;;;8.99;82.44
6835;BME280;3455;42.150;24.734;2022-12-08T01:37:06;66444.47;;;8.87;82.54
6835;BME280;3455;42.150;24.734;2022-12-08T01:39:34;66441.72;;;8.89;82.44
6835;BME280;3455;42.150;24.734;2022-12-08T01:42:00;66411.81;;;8.85;83.03
6835;BME280;3455;42.150;24.734;2022-12-08T01:44:53;66442.72;;;9.04;82.29
6835;BME280;3455;42.150;24.734;2022-12-08T01:47:22;66476.16;;;8.86;82.65
6835;BME280;3455;42.150;24.734;2022-12-08T01:49:50;66407.63;;;8.77;82.82
6835;BME280;3455;42.150;24.734;2022-12-08T01:52:19;66447.56;;;8.88;83.20
6835;BME280;3455;42.150;24.734;2022-12-08T01:54:50;66465.38;;;8.92;82.89
6835;BME280;3455;42.150;24.734;2022-12-08T01:57:22;66441.28;;;8.93;82.64
6835;BME280;3455;42.150;24.734;2022-12-08T01:59:55;66395.66;;;8.71;82.64
6835;BME280;3455;42.150;24.734;2022-12-08T02:02:28;66417.44;;;8.68;83.45
6835;BME280;3455;42.150;24.734;2022-12-08T02:04:57;66464.66;;;8.69;83.21
6835;BME280;3455;42.150;24.734;2022-12-08T02:07:24;66415.28;;;8.70;83.19
6835;BME280;3455;42.150;24.734;2022-12-08T02:09:52;66439.69;;;8.96;82.77
6835;BME280;3455;42.150;24.734;2022-12-08T02:12:20;66447.13;;;8.74;83.03
6835;BME280;3455;42.150;24.734;2022-12-08T02:14:47;66468.28;;;9.13;81.62
6835;BME280;3455;42.150;24.734;2022-12-08T02:17:28;66469.59;;;9.01;82.52
6835;BME280;3455;42.150;24.734;2022-12-08T02:23:08;66532.50;;;8.67;84.74
6835;BME280;3455;42.150;24.734;2022-12-08T02:25:56;66431.97;;;8.74;83.90
6835;BME280;3455;42.150;24.734;2022-12-08T02:31:30;66449.38;;;9.01;83.31
6835;BME280;3455;42.150;24.734;2022-12-08T02:34:14;66423.09;;;8.86;83.34
6835;BME280;3455;42.150;24.734;2022-12-08T02:36:49;66444.63;;;9.10;83.06
6835;BME280;3455;42.150;24.734;2022-12-08T02:39:32;66479.13;;;9.18;82.62
6835;BME280;3455;42.150;24.734;2022-12-08T02:42:07;66507.75;;;9.34;81.52
6835;BME280;3455;42.150;24.734;2022-12-08T02:44:40;66451.84;;;9.25;81.33
6835;BME280;3455;42.150;24.734;2022-12-08T02:47:10;66470.31;;;9.06;81.73
6835;BME280;3455;42.150;24.734;2022-12-08T02:49:39;66419.75;;;9.06;81.45
6835;BME280;3455;42.150;24.734;2022-12-08T02:52:34;66440.84;;;8.98;81.96
6835;BME280;3455;42.150;24.734;2022-12-08T02:54:55;66466.50;;;9.18;81.88
6835;BME280;3455;42.150;24.734;2022-12-08T02:57:29;66464.84;;;9.10;82.05
6835;BME280;3455;42.150;24.734;2022-12-08T03:00:05;66461.50;;;8.93;82.41
6835;BME280;3455;42.150;24.734;2022-12-08T03:02:42;66425.41;;;8.88;82.87
6835;BME280;3455;42.150;24.734;2022-12-08T03:05:22;66472.50;;;9.21;81.70
6835;BME280;3455;42.150;24.734;2022-12-08T03:07:59;66471.03;;;9.11;81.40
6835;BME280;3455;42.150;24.734;2022-12-08T03:10:33;66465.25;;;9.06;81.95
6835;BME280;3455;42.150;24.734;2022-12-08T03:13:04;66462.50;;;9.08;82.04
6835;BME280;3455;42.150;24.734;2022-12-08T03:15:34;66389.75;;;8.61;82.42
6835;BME280;3455;42.150;24.734;2022-12-08T03:18:04;66539.50;;;9.09;81.90
6835;BME280;3455;42.150;24.734;2022-12-08T03:20:35;66456.38;;;9.00;82.05
6835;BME280;3455;42.150;24.734;2022-12-08T03:23:05;66447.63;;;8.81;82.89
6835;BME280;3455;42.150;24.734;2022-12-08T03:25:35;66458.91;;;9.00;82.22
6835;BME280;3455;42.150;24.734;2022-12-08T03:28:04;66431.75;;;8.94;82.83
6835;BME280;3455;42.150;24.734;2022-12-08T03:30:33;66443.59;;;8.95;82.50
6835;BME280;3455;42.150;24.734;2022-12-08T03:33:06;66447.47;;;8.94;81.98
6835;BME280;3455;42.150;24.734;2022-12-08T03:35:38;66488.66;;;9.00;82.12
6835;BME280;3455;42.150;24.734;2022-12-08T03:38:09;66428.06;;;8.75;82.65
6835;BME280;3455;42.150;24.734;2022-12-08T03:40:37;66366.22;;;8.63;82.95
6835;BME280;3455;42.150;24.734;2022-12-08T03:43:04;66362.44;;;8.32;84.44
6835;BME280;3455;42.150;24.734;2022-12-08T03:45:31;66393.00;;;8.24;85.16
6835;BME280;3455;42.150;24.734;2022-12-08T03:47:58;66395.06;;;8.52;84.53
6835;BME280;3455;42.150;24.734;2022-12-08T03:50:25;66408.78;;;8.42;84.49
6835;BME280;3455;42.150;24.734;2022-12-08T03:52:53;66409.72;;;8.45;84.66
6835;BME280;3455;42.150;24.734;2022-12-08T03:55:19;66413.34;;;8.28;85.18
6835;BME280;3455;42.150;24.734;2022-12-08T03:57:46;66363.88;;;8.25;85.06
6835;BME280;3455;42.150;24.734;2022-12-08T04:00:15;66394.47;;;8.34;85.17
6835;BME280;3455;42.150;24.734;2022-12-08T04:02:42;66388.38;;;8.44;84.64
6835;BME280;3455;42.150;24.734;2022-12-08T04:05:09;66420.97;;;8.46;83.72
6835;BME280;3455;42.150;24.734;2022-12-08T04:07:36;66394.88;;;8.30;84.89
6835;BME280;3455;42.150;24.734;2022-12-08T04:10:05;66316.00;;;8.18;85.48
6835;BME280;3455;42.150;24.734;2022-12-08T04:12:32;66422.28;;;8.27;85.04
6835;BME280;3455;42.150;24.734;2022-12-08T04:14:59;66360.97;;;8.04;85.43
6835;BME280;3455;42.150;24.734;2022-12-08T04:17:25;66381.44;;;8.13;86.05
6835;BME280;3455;42.150;24.734;2022-12-08T04:19:52;66383.66;;;8.29;85.36
6835;BME280;3455;42.150;24.734;2022-12-08T04:22:19;66377.34;;;8.16;85.24
6835;BME280;3455;42.150;24.734;2022-12-08T04:24:46;66388.41;;;8.19;84.92
6835;BME280;3455;42.150;24.734;2022-12-08T04:27:14;66388.59;;;8.42;84.37
6835;BME280;3455;42.150;24.734;2022-12-08T04:29:41;66389.78;;;8.36;84.23
6835;BME280;3455;42.150;24.734;2022-12-08T04:32:07;66409.94;;;8.18;84.46
6835;BME280;3455;42.150;24.734;2022-12-08T04:34:34;66355.41;;;7.97;85.74
6835;BME280;3455;42.150;24.734;2022-12-08T04:37:01;66369.34;;;8.21;85.44
6835;BME280;3455;42.150;24.734;2022-12-08T04:39:28;66436.00;;;8.35;84.61
6835;BME280;3455;42.150;24.734;2022-12-08T04:41:54;66416.34;;;8.42;84.61
6835;BME280;3455;42.150;24.734;2022-12-08T04:44:22;66382.34;;;8.41;84.86
6835;BME280;3455;42.150;24.734;2022-12-08T04:46:49;66432.00;;;8.49;84.50
6835;BME280;3455;42.150;24.734;2022-12-08T04:49:16;66419.25;;;8.63;83.79
6835;BME280;3455;42.150;24.734;2022-12-08T04:51:42;66399.50;;;8.34;83.93
6835;BME280;3455;42.150;24.734;2022-12-08T04:54:09;66394.22;;;8.61;83.08
6835;BME280;3455;42.150;24.734;2022-12-08T04:56:36;66436.66;;;8.71;82.98
6835;BME280;3455;42.150;24.734;2022-12-08T04:59:03;66408.50;;;8.69;82.85
6835;BME280;3455;42.150;24.734;2022-12-08T05:01:32;66433.19;;;8.68;83.14
6835;BME280;3455;42.150;24.734;2022-12-08T05:03:59;66440.56;;;8.70;82.92
6835;BME280;3455;42.150;24.734;2022-12-08T05:06:26;66457.28;;;8.85;82.11
6835;BME280;3455;42.150;24.734;2022-12-08T05:08:54;66404.31;;;8.61;82.27
6835;BME280;3455;42.150;24.734;2022-12-08T05:11:21;66460.78;;;8.88;82.14
6835;BME280;3455;42.150;24.734;2022-12-08T05:13:55;66415.72;;;8.84;81.78
6835;BME280;3455;42.150;24.734;2022-12-08T05:16:23;66466.81;;;8.67;82.18
6835;BME280;3455;42.150;24.734;2022-12-08T05:18:51;66453.53;;;8.73;82.88
6835;BME280;3455;42.150;24.734;2022-12-08T05:21:18;66438.69;;;8.82;82.38
6835;BME280;3455;42.150;24.734;2022-12-08T05:23:45;66460.56;;;8.90;81.86
6835;BME280;3455;42.150;24.734;2022-12-08T05:26:11;66434.19;;;8.65;82.71
6835;BME280;3455;42.150;24.734;2022-12-08T05:28:38;66380.34;;;8.48;83.25
6835;BME280;3455;42.150;24.734;2022-12-08T05:31:05;66422.63;;;8.54;83.03
6835;BME280;3455;42.150;24.734;2022-12-08T05:33:32;66466.69;;;8.80;82.25
6835;BME280;3455;42.150;24.734;2022-12-08T05:36:00;66422.78;;;8.77;82.64
6835;BME280;3455;42.150;24.734;2022-12-08T05:38:34;66426.72;;;8.76;82.93
6835;BME280;3455;42.150;24.734;2022-12-08T05:41:01;66406.03;;;8.44;83.85
6835;BME280;3455;42.150;24.734;2022-12-08T05:43:28;66452.97;;;8.72;83.43
6835;BME280;3455;42.150;24.734;2022-12-08T05:45:54;66441.44;;;8.80;82.88
6835;BME280;3455;42.150;24.734;2022-12-08T05:48:21;66437.50;;;8.81;82.93
6835;BME280;3455;42.150;24.734;2022-12-08T05:50:48;66433.06;;;8.82;83.71
6835;BME280;3455;42.150;24.734;2022-12-08T05:53:18;66441.00;;;8.84;83.35
6835;BME280;3455;42.150;24.734;2022-12-08T05:55:46;66438.66;;;8.46;84.43
6835;BME280;3455;42.150;24.734;2022-12-08T05:58:15;66429.13;;;8.47;85.38
6835;BME280;3455;42.150;24.734;2022-12-08T06:00:43;66445.75;;;8.57;85.60
6835;BME280;3455;42.150;24.734;2022-12-08T06:03:10;66443.31;;;8.86;84.82
6835;BME280;3455;42.150;24.734;2022-12-08T06:05:37;66443.03;;;8.95;84.03
6835;BME280;3455;42.150;24.734;2022-12-08T06:08:04;66472.63;;;9.08;83.79
6835;BME280;3455;42.150;24.734;2022-12-08T06:10:32;66459.56;;;9.12;83.65
6835;BME280;3455;42.150;24.734;2022-12-08T06:12:59;66464.84;;;9.10;83.60
6835;BME280;3455;42.150;24.734;2022-12-08T06:15:26;66482.72;;;9.08;83.79
6835;BME280;3455;42.150;24.734;2022-12-08T06:17:52;66475.78;;;9.02;84.25
6835;BME280;3455;42.150;24.734;2022-12-08T06:20:19;66539.00;;;9.38;83.45
6835;BME280;3455;42.150;24.734;2022-12-08T06:22:46;66483.19;;;9.22;82.88
6835;BME280;3455;42.150;24.734;2022-12-08T06:25:13;66507.22;;;9.27;83.26
6835;BME280;3455;42.150;24.734;2022-12-08T06:27:41;66507.00;;;9.47;82.85
6835;BME280;3455;42.150;24.734;2022-12-08T06:30:08;66528.19;;;9.50;82.53
6835;BME280;3455;42.150;24.734;2022-12-08T06:32:35;66495.91;;;9.33;82.40
6835;BME280;3455;42.150;24.734;2022-12-08T06:35:01;66497.19;;;9.39;82.35
6835;BME280;3455;42.150;24.734;2022-12-08T06:37:29;66518.28;;;9.48;82.20
6835;BME280;3455;42.150;24.734;2022-12-08T06:39:55;66544.75;;;9.67;81.11
6835;BME280;3455;42.150;24.734;2022-12-08T06:42:22;66553.41;;;9.75;80.98
6835;BME280;3455;42.150;24.734;2022-12-08T06:45:09;66586.25;;;10.00;80.20
6835;BME280;3455;42.150;24.734;2022-12-08T06:47:36;66551.34;;;9.89;80.66
6835;BME280;3455;42.150;24.734;2022-12-08T06:50:03;66550.50;;;9.90;80.02
6835;BME280;3455;42.150;24.734;2022-12-08T06:52:30;66535.03;;;9.81;80.55
6835;BME280;3455;42.150;24.734;2022-12-08T06:54:57;66516.84;;;9.56;81.12
6835;BME280;3455;42.150;24.734;2022-12-08T06:57:23;66518.00;;;9.57;81.80
6835;BME280;3455;42.150;24.734;2022-12-08T06:59:50;66531.00;;;9.60;81.59
6835;BME280;3455;42.150;24.734;2022-12-08T07:02:18;66526.16;;;9.75;80.43
6835;BME280;3455;42.150;24.734;2022-12-08T07:04:45;66531.06;;;9.35;81.29
6835;BME280;3455;42.150;24.734;2022-12-08T07:07:12;66474.22;;;9.05;83.03
6835;BME280;3455;42.150;24.734;2022-12-08T07:09:38;66536.91;;;9.33;82.42
6835;BME280;3455;42.150;24.734;2022-12-08T07:12:05;66509.19;;;9.45;81.92
6835;BME280;3455;42.150;24.734;2022-12-08T07:14:32;66511.34;;;9.60;81.82
6835;BME280;3455;42.150;24.734;2022-12-08T07:16:59;66510.78;;;9.78;81.50
6835;BME280;3455;42.150;24.734;2022-12-08T07:19:27;66554.00;;;9.75;81.95
6835;BME280;3455;42.150;24.734;2022-12-08T07:21:54;66557.53;;;9.90;80.92
6835;BME280;3455;42.150;24.734;2022-12-08T07:24:21;66575.53;;;10.17;80.21
6835;BME280;3455;42.150;24.734;2022-12-08T07:26:47;66620.44;;;10.05;79.88
6835;BME280;3455;42.150;24.734;2022-12-08T07:29:14;66595.22;;;9.99;79.35
6835;BME280;3455;42.150;24.734;2022-12-08T07:31:41;66598.63;;;10.08;79.81
6835;BME280;3455;42.150;24.734;2022-12-08T07:34:10;66602.38;;;10.21;79.02
6835;BME280;3455;42.150;24.734;2022-12-08T07:36:38;66582.91;;;10.01;79.79
6835;BME280;3455;42.150;24.734;2022-12-08T07:39:05;66575.97;;;10.13;79.04
6835;BME280;3455;42.150;24.734;2022-12-08T07:41:32;66570.19;;;10.08;78.86
6835;BME280;3455;42.150;24.734;2022-12-08T07:43:59;66587.38;;;10.19;78.85
6835;BME280;3455;42.150;24.734;2022-12-08T07:46:25;66538.81;;;9.75;79.79
6835;BME280;3455;42.150;24.734;2022-12-08T07:48:53;66551.72;;;10.21;78.08
6835;BME280;3455;42.150;24.734;2022-12-08T07:51:20;66581.84;;;10.11;78.32
6835;BME280;3455;42.150;24.734;2022-12-08T07:53:49;66584.00;;;10.27;78.01
6835;BME280;3455;42.150;24.734;2022-12-08T07:56:16;66583.78;;;10.29;77.84
6835;BME280;3455;42.150;24.734;2022-12-08T07:58:43;66545.59;;;10.13;77.63
6835;BME280;3455;42.150;24.734;2022-12-08T08:01:19;66640.50;;;10.43;77.66
6835;BME280;3455;42.150;24.734;2022-12-08T08:03:46;66606.94;;;10.49;77.30
6835;BME280;3455;42.150;24.734;2022-12-08T08:06:13;66603.75;;;10.20;77.35
6835;BME280;3455;42.150;24.734;2022-12-08T08:08:39;66552.59;;;10.12;77.62
6835;BME280;3455;42.150;24.734;2022-12-08T08:11:08;66508.19;;;9.66;80.75
6835;BME280;3455;42.150;24.734;2022-12-08T08:13:35;66591.47;;;10.04;79.83
6835;BME280;3455;42.150;24.734;2022-12-08T08:16:03;66566.13;;;10.40;78.33
6835;BME280;3455;42.150;24.734;2022-12-08T08:18:30;66658.09;;;10.57;77.52
6835;BME280;3455;42.150;24.734;2022-12-08T08:20:57;66597.88;;;10.21;78.06
6835;BME280;3455;42.150;24.734;2022-12-08T08:23:24;66550.50;;;10.08;78.91
6835;BME280;3455;42.150;24.734;2022-12-08T08:25:50;66629.66;;;10.38;78.00
6835;BME280;3455;42.150;24.734;2022-12-08T08:28:19;66538.34;;;10.16;77.48
6835;BME280;3455;42.150;24.734;2022-12-08T08:30:46;66612.72;;;10.55;77.36
6835;BME280;3455;42.150;24.734;2022-12-08T08:33:13;66578.72;;;10.29;77.73
6835;BME280;3455;42.150;24.734;2022-12-08T08:35:39;66554.72;;;9.81;79.99
6835;BME280;3455;42.150;24.734;2022-12-08T08:38:07;66620.09;;;10.21;79.72
6835;BME280;3455;42.150;24.734;2022-12-08T08:40:33;66610.69;;;10.26;78.49
6835;BME280;3455;42.150;24.734;2022-12-08T08:43:00;66571.19;;;10.22;78.84
6835;BME280;3455;42.150;24.734;2022-12-08T08:45:29;66647.44;;;10.85;77.15
6835;BME280;3455;42.150;24.734;2022-12-08T08:47:56;66625.22;;;10.68;76.51
6835;BME280;3455;42.150;24.734;2022-12-08T08:50:23;66647.59;;;10.72;76.29
6835;BME280;3455;42.150;24.734;2022-12-08T08:52:49;66650.53;;;10.86;76.48
6835;BME280;3455;42.150;24.734;2022-12-08T08:55:16;66671.75;;;11.07;75.77
6835;BME280;3455;42.150;24.734;2022-12-08T08:57:44;66680.31;;;10.92;75.92
6835;BME280;3455;42.150;24.734;2022-12-08T09:00:11;66653.00;;;10.93;75.86
6835;BME280;3455;42.150;24.734;2022-12-08T09:02:40;66688.75;;;11.20;74.59
6835;BME280;3455;42.150;24.734;2022-12-08T09:05:07;66703.91;;;11.08;74.43
6835;BME280;3455;42.150;24.734;2022-12-08T09:07:34;66666.88;;;11.05;74.92
6835;BME280;3455;42.150;24.734;2022-12-08T09:10:00;66701.19;;;11.40;74.58
6835;BME280;3455;42.150;24.734;2022-12-08T09:12:27;66728.94;;;11.53;73.23
6835;BME280;3455;42.150;24.734;2022-12-08T09:14:54;66746.13;;;11.82;72.05
6835;BME280;3455;42.150;24.734;2022-12-08T09:17:21;66754.97;;;11.94;71.93
6835;BME280;3455;42.150;24.734;2022-12-08T09:19:49;66722.56;;;11.47;72.63
6835;BME280;3455;42.150;24.734;2022-12-08T09:22:16;66692.22;;;11.52;73.39
6835;BME280;3455;42.150;24.734;2022-12-08T09:24:42;66735.25;;;11.77;73.03
6835;BME280;3455;42.150;24.734;2022-12-08T09:27:09;66719.91;;;11.72;72.45
6835;BME280;3455;42.150;24.734;2022-12-08T09:29:36;66739.00;;;11.89;71.94
6835;BME280;3455;42.150;24.734;2022-12-08T09:32:03;66749.16;;;11.89;71.74
6835;BME280;3455;42.150;24.734;2022-12-08T09:34:30;66773.69;;;11.97;71.46
6835;BME280;3455;42.150;24.734;2022-12-08T09:36:58;66696.84;;;11.56;72.07
6835;BME280;3455;42.150;24.734;2022-12-08T09:39:25;66721.63;;;11.74;72.31
6835;BME280;3455;42.150;24.734;2022-12-08T09:41:57;66740.38;;;11.59;72.24
6835;BME280;3455;42.150;24.734;2022-12-08T09:44:48;66653.41;;;11.36;73.52
6835;BME280;3455;42.150;24.734;2022-12-08T09:47:20;66700.13;;;11.32;72.72
6835;BME280;3455;42.150;24.734;2022-12-08T09:49:53;66732.34;;;11.74;72.24
6835;BME280;3455;42.150;24.734;2022-12-08T09:52:25;66744.06;;;11.89;70.86
6835;BME280;3455;42.150;24.734;2022-12-08T09:54:55;66711.78;;;11.65;72.20
6835;BME280;3455;42.150;24.734;2022-12-08T09:57:24;66757.75;;;11.74;71.46
6835;BME280;3455;42.150;24.734;2022-12-08T09:59:54;66804.53;;;12.29;69.33
6835;BME280;3455;42.150;24.734;2022-12-08T10:02:24;66784.38;;;12.16;69.95
6835;BME280;3455;42.150;24.734;2022-12-08T10:04:53;66755.69;;;11.99;70.05
6835;BME280;3455;42.150;24.734;2022-12-08T10:07:29;66711.28;;;11.87;70.28
6835;BME280;3455;42.150;24.734;2022-12-08T10:10:02;66718.25;;;11.93;70.27
6835;BME280;3455;42.150;24.734;2022-12-08T10:12:37;66725.25;;;11.81;71.64
6835;BME280;3455;42.150;24.734;2022-12-08T10:18:17;66770.50;;;11.67;71.74
6835;BME280;3455;42.150;24.734;2022-12-08T10:20:45;66748.28;;;11.97;71.36
6835;BME280;3455;42.150;24.734;2022-12-08T10:23:21;66767.59;;;12.41;69.73
6835;BME280;3455;42.150;24.734;2022-12-08T10:25:54;66789.53;;;12.38;69.52
6835;BME280;3455;42.150;24.734;2022-12-08T10:28:23;66790.63;;;12.17;69.87
6835;BME280;3455;42.150;24.734;2022-12-08T10:30:50;66771.91;;;12.14;70.15
6835;BME280;3455;42.150;24.734;2022-12-08T10:33:20;66758.47;;;12.08;70.82
6835;BME280;3455;42.150;24.734;2022-12-08T10:35:48;66760.19;;;11.99;71.12
6835;BME280;3455;42.150;24.734;2022-12-08T10:38:20;66751.91;;;11.87;71.70
6835;BME280;3455;42.150;24.734;2022-12-08T10:40:49;66758.44;;;11.97;70.90
6835;BME280;3455;42.150;24.734;2022-12-08T10:43:20;66798.63;;;12.31;69.63
6835;BME280;3455;42.150;24.734;2022-12-08T10:45:47;66745.34;;;12.13;69.40
6835;BME280;3455;42.150;24.734;2022-12-08T10:48:16;66766.59;;;12.16;69.85
6835;BME280;3455;42.150;24.734;2022-12-08T10:50:45;66720.63;;;11.77;71.33
6835;BME280;3455;42.150;24.734;2022-12-08T10:53:14;66749.00;;;12.02;70.40
6835;BME280;3455;42.150;24.734;2022-12-08T10:55:48;66826.53;;;12.49;68.96
6835;BME280;3455;42.150;24.734;2022-12-08T10:58:27;67041.13;;;12.38;68.93
6835;BME280;3455;42.150;24.734;2022-12-08T11:00:56;66792.03;;;12.27;69.54
6835;BME280;3455;42.150;24.734;2022-12-08T11:03:26;66762.22;;;11.92;71.35
6835;BME280;3455;42.150;24.734;2022-12-08T11:05:56;66795.44;;;12.07;70.01
6835;BME280;3455;42.150;24.734;2022-12-08T11:08:23;66734.38;;;11.85;70.76
6835;BME280;3455;42.150;24.734;2022-12-08T11:10:52;66752.47;;;12.05;70.44
6835;BME280;3455;42.150;24.734;2022-12-08T11:13:21;66744.38;;;11.98;70.72
6835;BME280;3455;42.150;24.734;2022-12-08T11:15:49;66725.44;;;11.97;70.45
6835;BME280;3455;42.150;24.734;2022-12-08T11:18:23;66781.50;;;12.13;70.56
6835;BME280;3455;42.150;24.734;2022-12-08T11:21:05;66722.31;;;11.97;70.61
6835;BME280;3455;42.150;24.734;2022-12-08T11:23:35;66734.53;;;11.90;70.91
6835;BME280;3455;42.150;24.734;2022-12-08T11:26:06;66760.75;;;11.99;70.60
6835;BME280;3455;42.150;24.734;2022-12-08T11:28:38;66773.22;;;12.01;70.57
6835;BME280;3455;42.150;24.734;2022-12-08T11:31:16;66788.09;;;12.28;70.12
6835;BME280;3455;42.150;24.734;2022-12-08T11:33:46;66782.81;;;12.01;70.33
6835;BME280;3455;42.150;24.734;2022-12-08T11:36:14;66754.50;;;11.69;71.56
6835;BME280;3455;42.150;24.734;2022-12-08T11:38:44;66707.28;;;11.65;71.74
6835;BME280;3455;42.150;24.734;2022-12-08T11:41:15;66773.97;;;11.88;71.98
6835;BME280;3455;42.150;24.734;2022-12-08T11:43:47;66765.22;;;11.69;71.11
6835;BME280;3455;42.150;24.734;2022-12-08T11:46:20;66772.16;;;12.23;70.05
6835;BME280;3455;42.150;24.734;2022-12-08T11:48:50;66789.19;;;12.06;70.85
6835;BME280;3455;42.150;24.734;2022-12-08T11:51:22;66709.06;;;11.49;72.17
6835;BME280;3455;42.150;24.734;2022-12-08T11:54:12;66798.41;;;12.03;70.82
6835;BME280;3455;42.150;24.734;2022-12-08T11:56:44;66760.78;;;12.11;71.20
6835;BME280;3455;42.150;24.734;2022-12-08T11:59:18;66748.28;;;11.97;70.92
6835;BME280;3455;42.150;24.734;2022-12-08T12:01:48;66713.66;;;11.71;71.29
6835;BME280;3455;42.150;24.734;2022-12-08T12:04:21;66765.13;;;11.94;71.56
6835;BME280;3455;42.150;24.734;2022-12-08T12:07:32;66766.38;;;12.18;70.26
6835;BME280;3455;42.150;24.734;2022-12-08T12:10:24;66746.25;;;11.86;71.45
6835;BME280;3455;42.150;24.734;2022-12-08T12:13:07;66933.00;;;11.85;71.56
6835;BME280;3455;42.150;24.734;2022-12-08T12:18:45;66662.88;;;11.13;74.60
6835;BME280;3455;42.150;24.734;2022-12-08T12:21:15;66679.56;;;11.05;75.42
6835;BME280;3455;42.150;24.734;2022-12-08T12:23:46;66659.88;;;10.87;75.41
6835;BME280;3455;42.150;24.734;2022-12-08T12:26:19;66696.34;;;11.38;74.48
6835;BME280;3455;42.150;24.734;2022-12-08T12:28:51;66652.03;;;11.07;75.04
6835;BME280;3455;42.150;24.734;2022-12-08T12:31:23;66689.81;;;11.27;74.36
6835;BME280;3455;42.150;24.734;2022-12-08T12:33:54;66727.81;;;11.34;74.37
6835;BME280;3455;42.150;24.734;2022-12-08T12:36:23;66701.25;;;11.04;74.89
6835;BME280;3455;42.150;24.734;2022-12-08T12:38:51;66643.06;;;10.90;75.45
6835;BME280;3455;42.150;24.734;2022-12-08T12:41:36;66651.19;;;10.98;75.03
6835;BME280;3455;42.150;24.734;2022-12-08T12:44:41;66652.78;;;10.95;75.76
6835;BME280;3455;42.150;24.734;2022-12-08T12:47:13;66674.44;;;10.94;75.91
6835;BME280;3455;42.150;24.734;2022-12-08T12:50:13;66693.53;;;11.28;74.87
6835;BME280;3455;42.150;24.734;2022-12-08T12:52:46;66694.34;;;11.09;74.76
6835;BME280;3455;42.150;24.734;2022-12-08T12:55:22;66633.19;;;11.00;74.98
6835;BME280;3455;42.150;24.734;2022-12-08T12:57:50;66629.19;;;10.78;76.03
6835;BME280;3455;42.150;24.734;2022-12-08T13:00:20;66629.19;;;10.78;76.93
6835;BME280;3455;42.150;24.734;2022-12-08T13:02:48;66650.84;;;10.77;76.79
6835;BME280;3455;42.150;24.734;2022-12-08T13:05:18;66588.69;;;10.42;78.05
6835;BME280;3455;42.150;24.734;2022-12-08T13:07:50;66628.50;;;10.55;78.47
6835;BME280;3455;42.150;24.734;2022-12-08T13:10:19;66648.59;;;10.86;77.22
6835;BME280;3455;42.150;24.734;2022-12-08T13:13:14;66691.75;;;10.98;76.58
6835;BME280;3455;42.150;24.734;2022-12-08T13:15:49;66675.50;;;11.01;76.73
6835;BME280;3455;42.150;24.734;2022-12-08T13:18:19;66655.66;;;10.97;76.36
6835;BME280;3455;42.150;24.734;2022-12-08T13:20:50;66691.41;;;11.24;76.31
6835;BME280;3455;42.150;24.734;2022-12-08T13:23:40;66682.31;;;11.21;76.16
6835;BME280;3455;42.150;24.734;2022-12-08T13:26:19;66679.50;;;11.41;75.12
6835;BME280;3455;42.150;24.734;2022-12-08T13:29:20;66715.91;;;11.33;74.66
6835;BME280;3455;42.150;24.734;2022-12-08T13:31:51;66685.69;;;11.30;75.00
6835;BME280;3455;42.150;24.734;2022-12-08T13:34:21;66785.06;;;11.26;74.78
6835;BME280;3455;42.150;24.734;2022-12-08T13:36:56;66677.94;;;11.26;74.45
6835;BME280;3455;42.150;24.734;2022-12-08T13:39:31;66676.00;;;11.08;75.57
6835;BME280;3455;42.150;24.734;2022-12-08T13:42:03;66641.06;;;10.80;76.41
6835;BME280;3455;42.150;24.734;2022-12-08T13:44:37;66668.97;;;11.09;75.59